Time;durP1;ratioP1;P1;durP2;ratioP2;P2;SDS_P1;SDS_P2;PMS_P1;PMS_P2;Temp;Humidity;BMP_temperature;BMP_pressure;BME280_temperature;BME280_humidity;BME280_pressure;Samples;Min_cycle;Max_cycle;Signal;HPM_P1;HPM_P2
2022/04/16 00:08:50;;;;;;;13.40;12.10;;;;;;;4.83;80.05;100104.21;448042;1267;142262;-67
2022/04/16 00:18:57;;;;;;;12.60;11.40;;;;;;;4.82;80.01;100110.66;431555;1268;142550;-64
2022/04/16 00:29:03;;;;;;;11.10;10.00;;;;;;;4.76;79.94;100124.03;431136;1267;141999;-64
2022/04/16 00:39:10;;;;;;;12.60;11.00;;;;;;;4.61;80.11;100130.04;431455;1268;141471;-63
2022/04/16 00:49:16;;;;;;;12.80;11.50;;;;;;;4.48;79.93;100140.29;430473;1267;142246;-64
2022/04/16 00:59:22;;;;;;;10.40;9.00;;;;;;;4.32;79.89;100144.23;444223;1266;142435;-68
2022/04/16 01:09:29;;;;;;;8.60;7.80;;;;;;;4.26;79.81;100151.02;445218;1266;142103;-62
2022/04/16 01:19:37;;;;;;;11.70;9.00;;;;;;;4.22;79.68;100155.61;447278;1267;142361;-63
2022/04/16 01:29:44;;;;;;;7.60;6.70;;;;;;;4.20;79.40;100164.50;447999;1267;142108;-62
2022/04/16 01:39:50;;;;;;;6.80;6.10;;;;;;;4.16;79.16;100177.63;446930;1267;181999;-63
2022/04/16 01:49:58;;;;;;;5.80;5.20;;;;;;;4.10;79.03;100189.75;440765;1269;141370;-63
2022/04/16 02:00:07;;;;;;;6.70;5.00;;;;;;;4.03;78.76;100201.70;447900;1265;142263;-61
2022/04/16 02:10:16;;;;;;;5.00;4.20;;;;;;;3.97;79.06;100204.83;447220;1266;141853;-61
2022/04/16 02:20:23;;;;;;;6.10;4.90;;;;;;;3.88;78.68;100211.98;439440;1267;142137;-60
2022/04/16 02:30:30;;;;;;;4.00;3.20;;;;;;;3.88;78.61;100224.27;436018;1267;140748;-60
2022/04/16 02:40:36;;;;;;;4.20;3.80;;;;;;;3.81;78.33;100237.29;436702;1267;142402;-61
2022/04/16 02:50:42;;;;;;;4.10;3.60;;;;;;;3.77;78.34;100241.55;431042;1267;140726;-62
2022/04/16 03:00:48;;;;;;;4.80;3.30;;;;;;;3.72;78.01;100246.16;436403;1266;141380;-61
2022/04/16 03:10:55;;;;;;;4.90;3.90;;;;;;;3.67;77.78;100256.68;435546;1268;141334;-66
2022/04/16 03:21:01;;;;;;;3.60;2.90;;;;;;;3.64;77.22;100268.17;444340;1267;142510;-66
2022/04/16 03:31:07;;;;;;;4.30;3.50;;;;;;;3.66;76.90;100290.30;436136;1269;141687;-66
2022/04/16 03:41:13;;;;;;;3.50;2.90;;;;;;;3.62;76.75;100302.66;434409;1267;145095;-64
2022/04/16 03:51:19;;;;;;;3.30;2.70;;;;;;;3.57;76.03;100323.40;448037;1266;142365;-65
2022/04/16 04:01:25;;;;;;;2.60;2.40;;;;;;;3.49;75.15;100321.67;447197;1266;142999;-66
2022/04/16 04:11:31;;;;;;;3.50;3.20;;;;;;;3.46;74.61;100339.42;447985;1266;142124;-66
2022/04/16 04:21:37;;;;;;;2.80;2.40;;;;;;;3.40;74.08;100366.02;447974;1267;141825;-67
2022/04/16 04:31:42;;;;;;;2.20;1.50;;;;;;;3.24;73.20;100374.67;433551;1268;146767;-64
2022/04/16 04:41:49;;;;;;;1.80;1.40;;;;;;;3.18;72.40;100388.11;439888;1266;141571;-66
2022/04/16 04:51:55;;;;;;;1.50;1.40;;;;;;;3.12;71.60;100407.44;441836;1267;142536;-66
2022/04/16 05:02:01;;;;;;;1.60;1.50;;;;;;;3.18;71.20;100422.36;445983;1266;145051;-68
2022/04/16 05:12:07;;;;;;;1.90;1.80;;;;;;;3.78;70.70;100434.59;445934;1266;142146;-65
2022/04/16 05:22:13;;;;;;;1.40;1.30;;;;;;;5.39;69.69;100444.29;432697;1267;142082;-65
2022/04/16 05:32:21;;;;;;;0.90;0.90;;;;;;;11.95;62.58;100450.76;431461;1267;141811;-64
2022/04/16 05:42:27;;;;;;;0.80;0.70;;;;;;;16.88;54.15;100457.28;443578;1267;181229;-67
2022/04/16 05:52:33;;;;;;;1.10;1.00;;;;;;;19.83;48.12;100471.42;447228;1266;143573;-66
2022/04/16 06:02:40;;;;;;;1.10;1.00;;;;;;;21.74;42.51;100465.96;447970;1267;140527;-67
2022/04/16 06:12:44;;;;;;;;;;;;;;;23.37;37.35;100468.82;447180;1267;142482;-65
2022/04/16 06:22:51;;;;;;;1.70;1.10;;;;;;;24.45;34.91;100470.14;448180;1266;128096;-66
2022/04/16 06:32:57;;;;;;;0.40;0.40;;;;;;;25.81;31.66;100475.91;447857;1267;144264;-66
2022/04/16 06:43:03;;;;;;;0.60;0.60;;;;;;;24.95;28.88;100486.36;447066;1266;142497;-66
2022/04/16 06:53:09;;;;;;;2.40;0.80;;;;;;;23.96;29.72;100496.23;447988;1267;141891;-66
2022/04/16 07:03:14;;;;;;;0.80;0.80;;;;;;;26.18;26.23;100493.71;447949;1267;143771;-65
2022/04/16 07:13:20;;;;;;;1.00;0.90;;;;;;;26.91;25.17;100506.11;442639;1267;141793;-65
2022/04/16 07:23:26;;;;;;;0.90;0.70;;;;;;;27.10;24.13;100524.71;447902;1267;142004;-65
2022/04/16 07:33:32;;;;;;;0.90;0.80;;;;;;;28.08;23.13;100517.57;444503;1266;141419;-65
2022/04/16 07:43:38;;;;;;;0.90;0.80;;;;;;;29.83;21.71;100521.95;447281;1266;142203;-65
2022/04/16 07:53:44;;;;;;;1.00;1.00;;;;;;;27.42;21.19;100535.70;448076;1267;141810;-66
2022/04/16 08:03:50;;;;;;;1.40;0.70;;;;;;;22.42;22.76;100561.86;447304;1267;141271;-66
2022/04/16 08:13:55;;;;;;;1.20;1.10;;;;;;;20.02;25.16;100579.46;447979;1267;141835;-67
2022/04/16 08:24:13;;;;;;;1.40;1.30;;;;;;;23.10;23.59;100578.02;448107;1268;142580;-66
2022/04/16 08:34:18;;;;;;;1.30;1.00;;;;;;;18.33;25.28;100592.15;447228;1267;140859;-65
2022/04/16 08:44:26;;;;;;;1.50;1.10;;;;;;;13.43;29.18;100610.14;447868;1267;141589;-65
2022/04/16 08:54:32;;;;;;;1.30;1.10;;;;;;;11.53;31.83;100625.22;447966;1267;140460;-65
2022/04/16 09:04:37;;;;;;;3.40;1.70;;;;;;;10.70;33.74;100623.38;447010;1269;141615;-58
2022/04/16 09:14:45;;;;;;;2.30;1.30;;;;;;;10.14;34.66;100635.21;435657;1267;141303;-65
2022/04/16 09:24:51;;;;;;;4.80;1.90;;;;;;;9.92;35.37;100647.36;430452;1269;141738;-59
2022/04/16 09:34:57;;;;;;;1.90;1.80;;;;;;;9.49;36.22;100652.55;447866;1269;141271;-62
2022/04/16 09:45:13;;;;;;;3.30;1.80;;;;;;;9.14;36.79;100644.73;434427;1268;140569;-60
2022/04/16 09:55:21;;;;;;;1.00;0.90;;;;;;;9.08;37.18;100655.77;447301;1268;141372;-61
2022/04/16 10:05:28;;;;;;;7.20;1.70;;;;;;;8.68;37.61;100662.98;448051;1266;141519;-57
2022/04/16 10:15:47;;;;;;;1.10;1.00;;;;;;;8.99;37.41;100678.52;436585;1268;140599;-56
2022/04/16 10:26:00;;;;;;;1.80;1.20;;;;;;;8.91;37.62;100681.11;447878;1269;141280;-59
2022/04/16 10:36:09;;;;;;;0.90;0.90;;;;;;;8.89;37.75;100682.09;448059;1267;141248;-59
2022/04/16 10:46:15;;;;;;;5.20;1.40;;;;;;;8.89;37.46;100673.48;447247;1267;141193;-60
2022/04/16 10:56:22;;;;;;;3.20;1.10;;;;;;;8.81;38.00;100677.14;448029;1267;140880;-59
2022/04/16 11:06:36;;;;;;;2.30;1.30;;;;;;;9.02;37.97;100684.69;444754;1268;142309;-59
2022/04/16 11:16:46;;;;;;;1.20;1.10;;;;;;;9.34;37.74;100688.27;448093;1267;141269;-60
2022/04/16 11:37:24;;;;;;;1.10;1.00;;;;;;;9.31;37.05;100687.38;443098;1267;141103;-59
2022/04/16 11:47:31;;;;;;;2.10;1.00;;;;;;;8.78;37.16;100703.09;448124;1268;141141;-59
2022/04/16 11:57:37;;;;;;;1.20;1.00;;;;;;;8.89;37.35;100707.37;447892;1268;216265;-60
2022/04/16 12:07:44;;;;;;;0.90;0.80;;;;;;;9.37;36.74;100692.73;443376;1267;142498;-60
2022/04/16 12:17:51;;;;;;;2.60;1.40;;;;;;;9.51;36.83;100698.23;448064;1268;142027;-60
2022/04/16 12:27:59;;;;;;;2.60;1.20;;;;;;;9.43;36.69;100708.90;442784;1268;142442;-60
2022/04/16 12:38:05;;;;;;;5.10;1.20;;;;;;;9.22;36.61;100714.62;443696;1268;140911;-61
2022/04/16 12:48:11;;;;;;;1.40;1.10;;;;;;;9.21;36.44;100705.41;442004;1267;141146;-61
2022/04/16 12:58:17;;;;;;;1.60;1.40;;;;;;;9.07;36.58;100713.65;436525;1269;142156;-62
2022/04/16 13:08:24;;;;;;;2.90;2.00;;;;;;;9.16;35.98;100710.36;448052;1267;142121;-65
2022/04/16 13:18:30;;;;;;;3.10;1.30;;;;;;;9.24;35.48;100696.92;448151;1267;181301;-65
2022/04/16 13:28:36;;;;;;;2.40;1.20;;;;;;;9.27;35.51;100687.70;447404;1267;194590;-65
2022/04/16 13:38:42;;;;;;;2.30;1.90;;;;;;;9.64;35.54;100681.65;447922;1268;142276;-65
2022/04/16 13:48:48;;;;;;;2.70;1.50;;;;;;;9.63;34.90;100683.09;447377;1267;143109;-65
2022/04/16 13:58:54;;;;;;;4.20;1.90;;;;;;;9.35;34.52;100683.89;438902;1267;141961;-65
2022/04/16 14:09:00;;;;;;;4.40;2.00;;;;;;;9.31;34.84;100683.20;443393;1269;141555;-66
2022/04/16 14:19:06;;;;;;;3.50;1.80;;;;;;;9.47;34.59;100680.09;442622;1268;141637;-64
2022/04/16 14:29:14;;;;;;;1.70;1.20;;;;;;;9.45;34.64;100674.05;448097;1266;144511;-65
2022/04/16 14:39:20;;;;;;;3.00;1.60;;;;;;;9.56;34.44;100671.98;448112;1267;141650;-64
2022/04/16 14:49:25;;;;;;;2.20;1.00;;;;;;;9.36;34.65;100667.22;447264;1267;141392;-65
2022/04/16 14:59:31;;;;;;;1.80;1.20;;;;;;;9.47;34.73;100665.77;448097;1268;142028;-64
2022/04/16 15:09:37;;;;;;;2.50;2.20;;;;;;;9.49;34.91;100665.32;447729;1269;142314;-64
2022/04/16 15:19:44;;;;;;;2.10;1.60;;;;;;;9.31;34.96;100667.46;444738;1268;141458;-65
2022/04/16 15:29:50;;;;;;;2.70;1.50;;;;;;;9.06;35.44;100669.00;437794;1267;141605;-66
2022/04/16 15:39:56;;;;;;;5.10;1.80;;;;;;;8.84;35.40;100661.64;447230;1267;141306;-66
2022/04/16 15:50:02;;;;;;;1.40;1.30;;;;;;;8.79;35.65;100662.20;433624;1268;142570;-67
2022/04/16 16:00:10;;;;;;;6.30;1.90;;;;;;;8.75;36.03;100669.70;431918;1268;141065;-66
2022/04/16 16:10:18;;;;;;;1.60;1.10;;;;;;;8.69;36.47;100665.88;447224;1266;142083;-67
2022/04/16 16:20:23;;;;;;;;;;;;;;;8.43;36.82;100671.55;448049;1266;143979;-66
2022/04/16 16:30:32;;;;;;;2.40;1.60;;;;;;;8.22;37.29;100670.23;437383;1267;127608;-64
2022/04/16 16:40:38;;;;;;;4.30;2.20;;;;;;;8.31;38.01;100676.55;447030;1269;140828;-65
2022/04/16 16:50:44;;;;;;;2.50;1.40;;;;;;;8.30;38.42;100685.83;447961;1267;142254;-65
2022/04/16 17:00:50;;;;;;;1.90;1.60;;;;;;;8.27;38.48;100690.27;447372;1265;141401;-65
2022/04/16 17:10:56;;;;;;;4.00;1.50;;;;;;;8.16;38.83;100697.52;448102;1265;140745;-63
2022/04/16 17:21:02;;;;;;;3.40;2.10;;;;;;;7.91;39.03;100706.05;447754;1270;142115;-64
2022/04/16 17:31:10;;;;;;;3.60;1.30;;;;;;;7.61;39.62;100716.13;447352;1267;142131;-64
2022/04/16 17:41:16;;;;;;;1.70;1.00;;;;;;;7.33;39.88;100719.30;448142;1267;141849;-65
2022/04/16 17:51:22;;;;;;;2.60;1.70;;;;;;;7.02;40.54;100732.81;448175;1267;142297;-65
2022/04/16 18:01:28;;;;;;;1.00;0.70;;;;;;;6.83;40.99;100743.30;447281;1267;141111;-65
2022/04/16 18:11:35;;;;;;;4.30;2.30;;;;;;;6.54;41.12;100752.15;448127;1267;141657;-64
2022/04/16 18:21:41;;;;;;;4.30;1.40;;;;;;;6.15;41.78;100763.10;447345;1266;141620;-64
2022/04/16 18:31:49;;;;;;;5.60;1.60;;;;;;;5.78;42.49;100782.45;434973;1269;141323;-64
2022/04/16 18:42:01;;;;;;;6.30;2.20;;;;;;;5.47;43.12;100795.70;445364;1267;140752;-65
2022/04/16 18:52:07;;;;;;;5.20;3.10;;;;;;;5.23;43.60;100801.81;447324;1266;183529;-65
2022/04/16 19:12:39;;;;;;;4.60;3.20;;;;;;;4.80;44.98;100821.64;447856;1267;141760;-63
2022/04/16 19:22:45;;;;;;;12.30;5.40;;;;;;;4.56;46.01;100821.74;447397;1269;196746;-64
2022/04/16 19:32:51;;;;;;;9.90;4.90;;;;;;;4.40;46.41;100830.71;448031;1267;141149;-64
2022/04/16 19:42:57;;;;;;;4.60;2.60;;;;;;;4.19;47.35;100836.30;447294;1267;142424;-64
2022/04/16 19:53:03;;;;;;;4.90;3.60;;;;;;;4.05;47.56;100838.95;448090;1266;140210;-64
2022/04/16 20:03:10;;;;;;;5.90;3.40;;;;;;;3.93;47.88;100843.66;441200;1266;140403;-64
2022/04/16 20:13:24;;;;;;;6.50;3.30;;;;;;;3.78;48.54;100847.02;446798;1267;141512;-63
2022/04/16 20:23:30;;;;;;;7.60;3.80;;;;;;;3.60;48.97;100851.63;444861;1266;147010;-65
2022/04/16 20:33:36;;;;;;;8.10;3.80;;;;;;;3.47;49.56;100851.80;448120;1267;141375;-64
2022/04/16 20:54:06;;;;;;;6.80;3.20;;;;;;;3.23;50.27;100852.98;448060;1267;140757;-65
2022/04/16 21:04:12;;;;;;;6.30;2.90;;;;;;;3.11;50.53;100857.30;447103;1268;141143;-62
2022/04/16 21:14:18;;;;;;;6.60;3.30;;;;;;;2.99;51.13;100862.12;447156;1267;141824;-64
2022/04/16 21:24:24;;;;;;;7.40;3.90;;;;;;;2.84;51.42;100864.37;438169;1268;141122;-64
2022/04/16 21:34:30;;;;;;;6.90;3.20;;;;;;;2.65;51.90;100869.95;431059;1268;141488;-64
2022/04/16 21:44:36;;;;;;;7.60;3.50;;;;;;;2.42;52.47;100866.52;444668;1267;140883;-64
2022/04/16 21:54:42;;;;;;;4.40;3.10;;;;;;;2.28;52.97;100872.55;447385;1268;160883;-64
2022/04/16 22:04:47;;;;;;;6.90;3.70;;;;;;;2.18;53.46;100869.01;447917;1269;140619;-62
2022/04/16 22:14:54;;;;;;;7.60;3.60;;;;;;;2.10;53.79;100868.38;448127;1267;141086;-63
2022/04/16 22:24:59;;;;;;;5.60;2.60;;;;;;;1.98;54.17;100871.41;447130;1265;141326;-62
2022/04/16 22:35:06;;;;;;;5.30;4.40;;;;;;;1.88;54.44;100880.65;448167;1267;141325;-64
2022/04/16 22:45:12;;;;;;;7.10;3.50;;;;;;;1.77;54.74;100878.99;447904;1270;141647;-63
2022/04/16 22:55:18;;;;;;;3.20;2.20;;;;;;;1.63;55.00;100873.73;447368;1267;140995;-63
2022/04/16 23:05:29;;;;;;;4.70;2.70;;;;;;;1.50;55.25;100864.15;435920;1267;140790;-63
2022/04/16 23:26:01;;;;;;;6.30;3.70;;;;;;;1.20;55.97;100861.38;441560;1268;141460;-64
2022/04/16 23:36:07;;;;;;;6.00;3.70;;;;;;;1.10;56.27;100856.93;445399;1268;143689;-63
2022/04/16 23:56:36;;;;;;;6.60;4.20;;;;;;;0.98;56.78;100851.47;447356;1268;809370;-63
